Time;durP1;ratioP1;P1;durP2;ratioP2;P2;SDS_P1;SDS_P2;PMS_P1;PMS_P2;Temp;Humidity;BMP_temperature;BMP_pressure;BME280_temperature;BME280_humidity;BME280_pressure;Samples;Min_cycle;Max_cycle;Signal;HPM_P1;HPM_P2
2023/01/22 00:00:27;;;;;;;19.75;11.73;;;1.40;99.90;;;;;;5052374;28;20420;-84
2023/01/22 00:02:54;;;;;;;22.88;15.20;;;1.40;99.90;;;;;;5052066;28;20045;-84
2023/01/22 00:05:20;;;;;;;24.40;16.50;;;1.30;99.90;;;;;;5052467;28;20100;-84
2023/01/22 00:07:45;;;;;;;24.73;15.32;;;1.40;99.90;;;;;;5051780;28;20032;-84
2023/01/22 00:10:11;;;;;;;23.10;15.75;;;1.40;99.90;;;;;;5052631;28;20013;-84
2023/01/22 00:12:37;;;;;;;19.63;13.00;;;1.40;99.90;;;;;;5051525;28;20028;-84
2023/01/22 00:15:03;;;;;;;17.48;12.38;;;1.70;99.90;;;;;;5046911;28;20581;-84
2023/01/22 00:17:29;;;;;;;20.67;14.23;;;1.20;99.90;;;;;;5048038;28;20037;-84
2023/01/22 00:19:55;;;;;;;20.58;13.75;;;1.20;99.90;;;;;;5052131;28;20025;-84
2023/01/22 00:22:21;;;;;;;19.23;13.15;;;1.30;99.90;;;;;;5052083;28;20116;-84
2023/01/22 00:24:46;;;;;;;22.65;15.00;;;1.30;99.90;;;;;;5052567;28;20021;-84
2023/01/22 00:27:12;;;;;;;19.20;12.88;;;1.30;99.90;;;;;;5052119;28;20032;-84
2023/01/22 00:29:38;;;;;;;19.95;13.18;;;1.10;99.90;;;;;;5052028;28;20032;-84
2023/01/22 00:32:03;;;;;;;19.85;12.82;;;1.10;99.90;;;;;;5051481;28;20047;-84
2023/01/22 00:34:30;;;;;;;21.00;14.18;;;1.10;99.90;;;;;;5052059;28;20021;-84
2023/01/22 00:36:55;;;;;;;21.33;14.50;;;1.20;99.90;;;;;;5051054;28;20362;-84
2023/01/22 00:39:21;;;;;;;16.88;12.05;;;1.30;99.90;;;;;;5052403;28;20116;-84
2023/01/22 00:41:48;;;;;;;15.90;10.70;;;1.20;99.90;;;;;;5051947;28;20044;-84
2023/01/22 00:44:14;;;;;;;17.70;12.07;;;1.20;99.90;;;;;;5033987;28;20052;-84
2023/01/22 00:46:40;;;;;;;16.42;11.02;;;1.50;99.90;;;;;;5051642;28;20025;-84
2023/01/22 00:49:05;;;;;;;20.48;13.50;;;1.60;99.90;;;;;;5051470;28;20436;-84
2023/01/22 00:51:32;;;;;;;17.60;12.65;;;1.30;99.90;;;;;;5051237;28;20021;-85
2023/01/22 00:53:58;;;;;;;37.53;21.35;;;1.40;99.90;;;;;;5047921;28;20511;-84
2023/01/22 00:56:23;;;;;;;25.23;15.10;;;1.50;99.90;;;;;;5048047;28;20108;-84
2023/01/22 00:58:49;;;;;;;19.23;12.55;;;1.50;99.90;;;;;;5051766;28;20036;-84
2023/01/22 01:01:15;;;;;;;24.45;15.98;;;1.40;99.90;;;;;;5051246;28;20036;-84
2023/01/22 01:03:41;;;;;;;16.25;11.63;;;2.00;99.90;;;;;;5051482;28;20496;-84
2023/01/22 01:06:10;;;;;;;22.38;13.93;;;1.30;99.90;;;;;;5051174;28;20393;-84
2023/01/22 01:08:38;;;;;;;23.42;16.00;;;1.20;99.90;;;;;;5051217;28;20040;-84
2023/01/22 01:11:07;;;;;;;18.85;12.80;;;1.50;99.90;;;;;;5051507;28;20021;-84
2023/01/22 01:13:38;;;;;;;19.83;12.80;;;1.30;99.90;;;;;;5051249;28;20032;-84
2023/01/22 01:16:07;;;;;;;17.95;12.57;;;1.30;99.90;;;;;;5050282;28;20036;-84
2023/01/22 01:18:33;;;;;;;21.23;13.73;;;1.20;99.90;;;;;;5051435;28;20025;-84
2023/01/22 01:20:59;;;;;;;22.10;14.25;;;1.30;99.90;;;;;;5050928;28;20044;-84
2023/01/22 01:23:27;;;;;;;19.67;12.75;;;1.20;99.90;;;;;;5050924;28;20044;-84
2023/01/22 01:25:52;;;;;;;19.55;12.35;;;1.20;99.90;;;;;;5051911;28;20110;-84
2023/01/22 01:28:18;;;;;;;21.48;13.65;;;1.30;99.90;;;;;;5051069;28;20076;-84
2023/01/22 01:30:44;;;;;;;24.05;13.88;;;1.30;99.90;;;;;;5051058;28;20035;-84
2023/01/22 01:33:11;;;;;;;30.05;17.88;;;1.30;99.90;;;;;;5051101;28;20045;-84
2023/01/22 01:35:36;;;;;;;18.10;12.60;;;1.40;99.90;;;;;;5050795;28;20040;-84
2023/01/22 01:38:03;;;;;;;20.42;12.80;;;1.20;99.90;;;;;;5051744;28;20022;-84
2023/01/22 01:40:29;;;;;;;19.67;12.75;;;1.20;99.90;;;;;;5051103;28;20033;-84
2023/01/22 01:42:55;;;;;;;18.50;11.77;;;1.10;99.90;;;;;;5051334;28;20094;-84
2023/01/22 01:45:31;;;;;;;17.38;11.68;;;1.20;99.90;;;;;;5050976;28;20036;-84
2023/01/22 01:48:03;;;;;;;17.42;11.73;;;1.30;99.90;;;;;;5052127;28;20104;-84
2023/01/22 01:50:28;;;;;;;15.80;10.48;;;1.60;99.90;;;;;;5054793;28;20035;-84
2023/01/22 01:52:56;;;;;;;16.48;10.90;;;1.30;99.90;;;;;;5054933;28;20029;-84
2023/01/22 01:55:27;;;;;;;16.02;11.73;;;1.10;99.90;;;;;;5052698;28;20029;-84
2023/01/22 01:57:55;;;;;;;20.92;12.57;;;1.10;99.90;;;;;;5054206;28;20116;-84
2023/01/22 02:00:21;;;;;;;20.67;14.45;;;1.40;99.90;;;;;;5054167;28;20052;-84
2023/01/22 02:02:48;;;;;;;17.70;11.48;;;1.10;99.90;;;;;;5036739;28;20071;-84
2023/01/22 02:05:13;;;;;;;16.83;11.73;;;1.10;99.90;;;;;;5054117;28;20028;-84
2023/01/22 02:07:39;;;;;;;17.35;11.25;;;1.00;99.90;;;;;;5054869;28;20116;-84
2023/01/22 02:10:05;;;;;;;17.08;11.38;;;1.00;99.90;;;;;;5054682;28;20056;-84
2023/01/22 02:12:32;;;;;;;16.73;11.43;;;0.90;99.90;;;;;;5053980;28;20056;-84
2023/01/22 02:15:02;;;;;;;16.45;9.90;;;0.90;99.90;;;;;;5046818;28;20025;-84
2023/01/22 02:17:28;;;;;;;20.77;12.80;;;0.90;99.90;;;;;;5050375;28;20043;-84
2023/01/22 02:19:53;;;;;;;16.98;11.73;;;1.00;99.90;;;;;;5054761;28;20021;-84
2023/01/22 02:22:21;;;;;;;17.55;11.65;;;1.00;99.90;;;;;;5054383;28;20520;-84
2023/01/22 02:24:48;;;;;;;15.52;10.63;;;0.90;99.90;;;;;;5054775;28;20028;-84
2023/01/22 02:27:13;;;;;;;18.38;12.10;;;0.80;99.90;;;;;;5054022;28;20033;-84
2023/01/22 02:29:39;;;;;;;19.52;12.48;;;0.90;99.90;;;;;;5054179;28;20036;-84
2023/01/22 02:32:05;;;;;;;17.17;11.75;;;0.80;99.90;;;;;;5054249;28;20055;-84
2023/01/22 02:34:31;;;;;;;16.55;11.05;;;0.90;99.90;;;;;;5054321;28;20111;-84
2023/01/22 02:36:57;;;;;;;17.13;11.93;;;0.80;99.90;;;;;;5054062;28;20029;-84
2023/01/22 02:39:22;;;;;;;15.88;11.10;;;0.90;99.90;;;;;;5053987;28;20017;-85
2023/01/22 02:41:48;;;;;;;18.05;12.25;;;0.90;99.90;;;;;;5054228;28;20437;-84
2023/01/22 02:44:13;;;;;;;17.83;11.52;;;0.90;99.90;;;;;;5054225;28;20103;-85
2023/01/22 02:46:39;;;;;;;16.95;11.43;;;0.90;99.90;;;;;;5053589;28;20033;-85
2023/01/22 02:49:05;;;;;;;17.42;11.77;;;1.00;99.90;;;;;;5053986;28;20033;-85
2023/01/22 02:51:30;;;;;;;17.42;11.38;;;1.00;99.90;;;;;;5053717;28;20028;-85
2023/01/22 02:53:56;;;;;;;18.98;12.15;;;1.00;99.90;;;;;;5052554;28;20029;-85
2023/01/22 02:56:22;;;;;;;16.25;11.48;;;0.90;99.90;;;;;;5049809;28;20044;-85
2023/01/22 02:58:48;;;;;;;16.60;11.30;;;1.00;99.90;;;;;;5045541;28;20049;-86
2023/01/22 03:01:19;;;;;;;16.55;11.38;;;0.90;99.90;;;;;;5053042;28;20052;-85
2023/01/22 03:03:50;;;;;;;17.60;11.02;;;0.80;99.90;;;;;;5053586;28;20039;-85
2023/01/22 03:06:20;;;;;;;18.02;11.55;;;0.70;99.90;;;;;;5052806;28;20067;-85
2023/01/22 03:08:53;;;;;;;17.55;12.18;;;0.70;99.90;;;;;;5053115;28;20044;-85
2023/01/22 03:11:18;;;;;;;16.95;11.80;;;0.70;99.90;;;;;;5053065;28;20104;-85
2023/01/22 03:21:56;;;;;;;15.77;10.90;;;0.80;99.90;;;;;;5052707;28;20576;-85
2023/01/22 03:24:22;;;;;;;17.70;11.25;;;0.80;99.90;;;;;;5053117;28;20108;-85
2023/01/22 03:26:48;;;;;;;15.80;11.27;;;0.80;99.90;;;;;;5052818;28;20043;-85
2023/01/22 03:29:13;;;;;;;17.17;11.32;;;0.90;99.90;;;;;;5052878;28;20144;-85
2023/01/22 03:31:39;;;;;;;15.95;10.88;;;1.00;99.90;;;;;;5052469;28;20398;-85
2023/01/22 03:34:05;;;;;;;17.33;11.45;;;1.60;99.90;;;;;;5052906;28;20036;-85
2023/01/22 03:36:30;;;;;;;16.70;10.18;;;1.00;99.90;;;;;;5052564;28;20025;-85
2023/01/22 03:38:56;;;;;;;16.23;11.23;;;0.90;99.90;;;;;;5052817;28;20029;-85
2023/01/22 03:41:21;;;;;;;15.45;10.52;;;0.90;99.90;;;;;;5052304;28;20142;-86
2023/01/22 03:43:47;;;;;;;14.35;9.57;;;1.00;99.90;;;;;;5052596;28;20053;-85
2023/01/22 03:46:15;;;;;;;17.17;11.55;;;0.90;99.90;;;;;;5052183;28;20462;-85
2023/01/22 03:48:42;;;;;;;17.52;11.77;;;1.30;99.90;;;;;;5052917;28;20512;-85
2023/01/22 03:51:14;;;;;;;16.45;11.00;;;1.40;99.90;;;;;;5052764;28;20036;-85
2023/01/22 03:53:40;;;;;;;16.55;11.40;;;0.70;99.90;;;;;;5052125;28;20124;-85
2023/01/22 03:56:09;;;;;;;16.15;10.95;;;0.90;99.90;;;;;;5051997;28;20413;-85
2023/01/22 03:58:35;;;;;;;17.50;11.30;;;0.90;99.90;;;;;;5052366;28;20032;-85
2023/01/22 04:01:04;;;;;;;18.92;10.45;;;0.90;99.90;;;;;;5052575;28;20382;-85
2023/01/22 04:03:30;;;;;;;16.15;10.57;;;0.90;99.90;;;;;;5052491;28;20079;-84
2023/01/22 04:05:59;;;;;;;15.15;11.07;;;0.90;99.90;;;;;;5051879;28;20082;-85
2023/01/22 04:08:27;;;;;;;15.82;10.32;;;0.80;99.90;;;;;;5052579;28;20070;-85
2023/01/22 04:10:53;;;;;;;14.00;10.40;;;1.00;99.90;;;;;;5051152;28;20107;-84
2023/01/22 04:13:19;;;;;;;18.35;11.57;;;0.90;99.90;;;;;;5051485;28;20020;-84
2023/01/22 04:15:44;;;;;;;14.98;10.27;;;1.00;99.90;;;;;;5052061;28;20615;-85
2023/01/22 04:18:11;;;;;;;16.70;10.82;;;0.90;99.90;;;;;;5052324;28;20100;-84
2023/01/22 04:20:37;;;;;;;14.80;10.60;;;0.90;99.90;;;;;;5052248;28;20029;-84
2023/01/22 04:23:03;;;;;;;14.30;9.88;;;0.90;99.90;;;;;;5052546;28;20044;-84
2023/01/22 04:25:29;;;;;;;16.13;10.48;;;0.90;99.90;;;;;;5051968;28;20354;-84
2023/01/22 04:27:54;;;;;;;15.45;10.70;;;0.80;99.90;;;;;;5052319;28;20076;-84
2023/01/22 04:30:20;;;;;;;14.75;10.10;;;0.60;99.90;;;;;;5052182;28;20079;-84
2023/01/22 04:32:46;;;;;;;13.98;10.02;;;0.70;99.90;;;;;;5052338;28;20055;-84
2023/01/22 04:35:11;;;;;;;16.38;11.27;;;0.70;99.90;;;;;;5052013;28;20021;-84
2023/01/22 04:37:38;;;;;;;14.30;10.52;;;0.70;99.90;;;;;;5051900;28;20112;-84
2023/01/22 04:40:04;;;;;;;16.30;10.52;;;0.80;99.90;;;;;;5051962;28;20432;-85
2023/01/22 04:42:31;;;;;;;15.05;10.32;;;0.80;99.90;;;;;;5051833;28;20036;-84
2023/01/22 04:44:57;;;;;;;15.57;10.48;;;0.80;99.90;;;;;;5045242;28;20393;-84
2023/01/22 04:47:23;;;;;;;16.33;9.82;;;0.70;99.90;;;;;;5051634;28;20033;-84
2023/01/22 04:49:49;;;;;;;15.48;11.00;;;0.60;99.90;;;;;;5051655;28;20029;-84
2023/01/22 04:52:15;;;;;;;15.77;10.10;;;0.70;99.90;;;;;;5051675;28;20059;-84
2023/01/22 04:54:40;;;;;;;14.20;10.18;;;0.70;99.90;;;;;;5051523;28;20025;-84
2023/01/22 04:57:06;;;;;;;16.00;10.10;;;1.20;99.90;;;;;;5051585;28;20036;-85
2023/01/22 04:59:31;;;;;;;13.65;8.95;;;0.70;99.90;;;;;;5050930;28;20025;-84
2023/01/22 05:01:57;;;;;;;15.45;10.35;;;0.80;99.90;;;;;;5051243;28;20139;-84
2023/01/22 05:04:23;;;;;;;15.35;10.18;;;0.90;99.90;;;;;;5051397;28;20049;-84
2023/01/22 05:06:49;;;;;;;15.82;11.18;;;0.80;99.90;;;;;;5050943;28;20124;-84
2023/01/22 05:09:15;;;;;;;14.23;9.15;;;0.80;99.90;;;;;;5051862;28;20393;-84
2023/01/22 05:11:40;;;;;;;13.68;9.57;;;0.80;99.90;;;;;;5050926;28;20029;-84
2023/01/22 05:14:06;;;;;;;13.65;8.98;;;0.80;99.90;;;;;;5051131;28;20112;-84
2023/01/22 05:16:32;;;;;;;14.82;9.65;;;0.70;99.90;;;;;;5051228;28;20119;-84
2023/01/22 05:18:58;;;;;;;14.82;10.05;;;0.80;99.90;;;;;;5051687;28;20384;-84
2023/01/22 05:21:23;;;;;;;14.05;9.32;;;0.90;99.90;;;;;;5050858;28;20025;-84
2023/01/22 05:23:49;;;;;;;13.38;9.63;;;0.90;99.90;;;;;;5035980;28;20119;-84
2023/01/22 05:26:15;;;;;;;14.02;9.18;;;1.20;99.90;;;;;;5055315;28;20017;-84
2023/01/22 05:28:40;;;;;;;14.25;9.93;;;0.90;99.90;;;;;;5055480;28;20111;-84
2023/01/22 05:31:06;;;;;;;16.30;10.23;;;0.80;99.90;;;;;;5055239;28;20083;-84
2023/01/22 05:33:32;;;;;;;14.93;9.75;;;1.10;99.90;;;;;;5054799;28;20072;-84
2023/01/22 05:35:59;;;;;;;13.55;9.63;;;0.80;99.90;;;;;;5054827;28;20547;-84
2023/01/22 05:38:27;;;;;;;15.13;10.23;;;0.70;99.90;;;;;;5055141;28;20025;-84
2023/01/22 05:40:52;;;;;;;13.82;10.20;;;0.80;99.90;;;;;;5054906;28;20262;-84
2023/01/22 05:43:18;;;;;;;15.90;10.95;;;0.80;99.90;;;;;;5055021;28;20048;-84
2023/01/22 05:45:43;;;;;;;14.85;10.10;;;1.50;99.90;;;;;;5055008;28;20068;-84
2023/01/22 05:48:09;;;;;;;16.40;10.75;;;1.10;99.90;;;;;;5054682;28;20079;-84
2023/01/22 05:50:35;;;;;;;14.48;9.77;;;0.90;99.90;;;;;;5054603;28;20021;-84
2023/01/22 05:53:01;;;;;;;17.25;10.55;;;0.90;99.90;;;;;;5054370;28;20036;-84
2023/01/22 05:55:27;;;;;;;15.70;10.15;;;0.80;99.90;;;;;;5054037;28;20040;-84
2023/01/22 05:57:53;;;;;;;13.50;9.73;;;0.80;99.90;;;;;;5054521;28;20489;-84
2023/01/22 06:00:19;;;;;;;14.90;10.55;;;0.80;99.90;;;;;;5054758;28;20061;-84
2023/01/22 06:02:44;;;;;;;15.93;10.00;;;0.80;99.90;;;;;;5054517;28;20120;-84
2023/01/22 06:05:10;;;;;;;14.02;9.73;;;0.90;99.90;;;;;;5053503;28;20412;-84
2023/01/22 06:07:36;;;;;;;14.13;9.52;;;0.90;99.90;;;;;;5054275;28;20581;-84
2023/01/22 06:10:01;;;;;;;13.60;8.75;;;0.80;99.90;;;;;;5054503;28;20561;-84
2023/01/22 06:12:27;;;;;;;15.43;10.13;;;0.90;99.90;;;;;;5054386;28;20033;-84
2023/01/22 06:14:53;;;;;;;15.68;10.50;;;1.00;99.90;;;;;;5054022;28;20503;-84
2023/01/22 06:17:19;;;;;;;14.35;9.23;;;1.10;99.90;;;;;;5054146;28;20033;-84
2023/01/22 06:19:45;;;;;;;15.10;10.10;;;1.00;99.90;;;;;;5054243;28;20084;-84
2023/01/22 06:22:10;;;;;;;15.52;10.05;;;1.10;99.90;;;;;;5054750;28;20033;-84
2023/01/22 06:24:36;;;;;;;15.20;10.55;;;1.10;99.90;;;;;;5054281;28;20474;-84
2023/01/22 06:27:03;;;;;;;14.98;9.70;;;0.90;99.90;;;;;;5054313;28;20028;-84
2023/01/22 06:29:30;;;;;;;15.48;10.43;;;0.90;99.90;;;;;;5054151;28;20501;-84
2023/01/22 06:31:56;;;;;;;14.02;10.20;;;1.00;99.90;;;;;;5054541;28;20076;-85
2023/01/22 06:34:22;;;;;;;14.32;9.77;;;1.00;99.90;;;;;;5052741;28;20503;-84
2023/01/22 06:36:48;;;;;;;15.30;10.38;;;1.10;99.90;;;;;;5054181;28;20092;-84
2023/01/22 06:39:13;;;;;;;12.88;9.57;;;1.00;99.90;;;;;;5053846;28;20055;-84
2023/01/22 06:41:39;;;;;;;10.40;6.63;;;1.10;99.90;;;;;;5053877;28;20389;-84
2023/01/22 06:44:05;;;;;;;15.13;10.80;;;1.30;99.90;;;;;;5054194;28;20029;-84
2023/01/22 06:46:31;;;;;;;15.07;9.68;;;1.00;99.90;;;;;;5052955;28;20025;-84
2023/01/22 06:48:57;;;;;;;15.75;10.57;;;1.00;99.90;;;;;;5053160;28;20025;-84
2023/01/22 06:51:24;;;;;;;15.77;10.13;;;0.90;99.90;;;;;;5053371;28;20017;-85
2023/01/22 06:53:49;;;;;;;15.18;10.18;;;1.10;99.90;;;;;;5052211;28;20033;-85
2023/01/22 06:56:15;;;;;;;14.18;10.00;;;0.90;99.90;;;;;;5054034;28;20091;-84
2023/01/22 06:58:41;;;;;;;14.35;10.38;;;1.00;99.90;;;;;;5053618;28;20464;-84
2023/01/22 07:01:06;;;;;;;14.80;10.65;;;1.00;99.90;;;;;;5053007;28;20025;-84
2023/01/22 07:03:32;;;;;;;16.17;10.68;;;1.00;99.90;;;;;;5035788;28;20055;-85
2023/01/22 07:05:59;;;;;;;14.13;9.90;;;1.10;99.90;;;;;;5053831;28;20028;-84
2023/01/22 07:08:26;;;;;;;13.60;8.10;;;1.00;99.90;;;;;;5053278;28;20029;-85
2023/01/22 07:10:52;;;;;;;14.05;8.50;;;0.80;99.90;;;;;;5054068;28;20017;-85
2023/01/22 07:13:18;;;;;;;13.50;9.50;;;0.80;99.90;;;;;;5035384;28;20103;-84
2023/01/22 07:15:43;;;;;;;15.02;10.80;;;0.90;99.90;;;;;;5052591;28;20549;-84
2023/01/22 07:18:10;;;;;;;14.43;10.32;;;0.80;99.90;;;;;;5053212;28;20440;-83
2023/01/22 07:20:36;;;;;;;18.08;11.63;;;0.90;99.90;;;;;;5034999;28;20420;-84
2023/01/22 07:23:02;;;;;;;14.63;10.13;;;0.90;99.90;;;;;;5053273;28;20036;-85
2023/01/22 07:25:28;;;;;;;13.57;9.93;;;0.90;99.90;;;;;;5053057;28;20020;-85
2023/01/22 07:28:01;;;;;;;15.50;10.50;;;0.90;99.90;;;;;;5049540;28;20040;-84
2023/01/22 07:30:27;;;;;;;15.90;10.80;;;0.90;99.90;;;;;;5052754;28;20358;-84
2023/01/22 07:32:56;;;;;;;15.93;11.10;;;1.00;99.90;;;;;;5052622;28;20056;-84
2023/01/22 07:35:22;;;;;;;15.15;10.75;;;1.00;99.90;;;;;;5053304;28;20024;-84
2023/01/22 07:37:52;;;;;;;16.08;11.35;;;1.20;99.90;;;;;;5053331;28;20033;-84
2023/01/22 07:40:18;;;;;;;15.90;10.38;;;1.00;99.90;;;;;;5053195;28;20075;-84
2023/01/22 07:42:43;;;;;;;14.88;10.50;;;1.00;99.90;;;;;;5053114;28;20037;-84
2023/01/22 07:45:09;;;;;;;14.98;10.77;;;1.10;99.90;;;;;;5053424;28;20029;-84
2023/01/22 07:47:35;;;;;;;16.90;10.88;;;1.10;99.90;;;;;;5052267;28;20567;-84
2023/01/22 07:50:01;;;;;;;16.58;11.20;;;0.90;99.90;;;;;;5052975;28;20108;-85
2023/01/22 07:52:26;;;;;;;14.55;11.13;;;1.00;99.90;;;;;;5052812;28;20021;-84
2023/01/22 07:54:52;;;;;;;14.93;10.82;;;1.00;99.90;;;;;;5052564;28;20029;-85
2023/01/22 07:57:18;;;;;;;16.60;11.20;;;1.10;99.90;;;;;;5052705;28;20025;-85
2023/01/22 07:59:44;;;;;;;19.00;11.88;;;1.10;99.90;;;;;;5053167;28;20023;-84
2023/01/22 08:02:15;;;;;;;15.35;10.88;;;1.40;99.90;;;;;;5052241;28;20021;-85
2023/01/22 08:04:42;;;;;;;18.05;11.48;;;1.20;99.90;;;;;;5052579;28;20083;-84
2023/01/22 08:07:17;;;;;;;13.82;9.38;;;1.20;99.90;;;;;;5052694;28;20033;-84
2023/01/22 08:09:43;;;;;;;15.55;10.95;;;1.10;99.90;;;;;;5052903;28;20051;-84
2023/01/22 08:12:09;;;;;;;15.57;10.75;;;1.20;99.90;;;;;;5034703;28;20029;-85
2023/01/22 08:14:35;;;;;;;27.80;17.98;;;1.10;99.90;;;;;;5052291;28;20112;-84
2023/01/22 08:17:00;;;;;;;18.08;12.60;;;1.40;99.90;;;;;;5044626;28;20115;-85
2023/01/22 08:19:28;;;;;;;17.33;11.77;;;1.30;99.90;;;;;;5052286;28;20025;-84
2023/01/22 08:21:54;;;;;;;16.23;10.80;;;1.40;99.90;;;;;;5052331;28;20116;-84
2023/01/22 08:24:20;;;;;;;17.98;13.05;;;1.20;99.90;;;;;;5052627;28;20029;-84
2023/01/22 08:26:46;;;;;;;22.83;16.02;;;1.20;99.90;;;;;;5052152;28;20029;-84
2023/01/22 08:29:12;;;;;;;59.53;41.38;;;1.50;99.90;;;;;;5052359;28;20021;-85
2023/01/22 08:31:38;;;;;;;22.98;16.30;;;1.70;99.90;;;;;;5051904;28;20175;-84
2023/01/22 08:34:04;;;;;;;238.63;182.02;;;1.20;99.90;;;;;;5052164;28;20453;-85
2023/01/22 08:36:29;;;;;;;47.72;38.65;;;1.40;99.90;;;;;;5052547;28;20048;-85
2023/01/22 08:38:55;;;;;;;21.10;15.77;;;1.50;99.90;;;;;;5052236;28;20102;-84
2023/01/22 08:41:21;;;;;;;16.35;10.63;;;1.60;99.90;;;;;;5052182;28;20025;-84
2023/01/22 08:43:47;;;;;;;21.27;15.63;;;1.80;99.90;;;;;;5052361;28;20485;-85
2023/01/22 08:46:13;;;;;;;16.30;12.18;;;1.80;99.90;;;;;;5051719;28;20097;-85
2023/01/22 08:48:40;;;;;;;21.38;14.80;;;1.80;99.90;;;;;;5051864;28;20048;-85
2023/01/22 08:51:06;;;;;;;23.25;16.83;;;1.90;99.90;;;;;;5051917;28;20029;-85
2023/01/22 08:53:31;;;;;;;15.57;12.77;;;2.00;99.90;;;;;;5051739;28;20040;-85
2023/01/22 08:55:57;;;;;;;14.95;10.93;;;2.00;99.90;;;;;;5052323;28;20032;-85
2023/01/22 08:58:24;;;;;;;16.30;11.45;;;2.50;99.90;;;;;;5051229;28;20044;-85
2023/01/22 09:00:49;;;;;;;15.73;11.30;;;2.20;99.90;;;;;;5051411;28;20541;-85
2023/01/22 09:03:15;;;;;;;15.85;11.68;;;2.30;99.90;;;;;;5051702;28;20119;-85
2023/01/22 09:05:41;;;;;;;16.70;11.70;;;2.50;99.90;;;;;;5051766;28;20061;-85
2023/01/22 09:08:07;;;;;;;16.15;10.82;;;2.40;99.90;;;;;;5051661;28;20499;-85
2023/01/22 09:10:33;;;;;;;14.93;10.15;;;2.70;99.90;;;;;;5051885;28;20021;-85
2023/01/22 09:12:59;;;;;;;17.25;10.73;;;2.10;99.90;;;;;;5052174;28;20037;-85
2023/01/22 09:15:25;;;;;;;17.83;11.60;;;2.40;99.90;;;;;;5051369;28;20112;-85
2023/01/22 09:17:51;;;;;;;13.57;8.98;;;2.40;99.90;;;;;;5044021;28;20072;-84
2023/01/22 09:20:16;;;;;;;14.70;10.82;;;2.80;99.90;;;;;;5051718;28;20438;-84
2023/01/22 09:22:46;;;;;;;17.25;13.10;;;2.30;99.90;;;;;;5034281;28;20072;-85
2023/01/22 09:25:12;;;;;;;15.25;10.88;;;2.50;99.90;;;;;;5033682;28;20393;-84
2023/01/22 09:27:38;;;;;;;16.05;11.50;;;2.20;99.90;;;;;;5051558;28;20099;-84
2023/01/22 09:30:04;;;;;;;14.82;10.88;;;2.50;99.90;;;;;;5051272;28;20487;-84
2023/01/22 09:32:30;;;;;;;16.48;12.63;;;2.20;99.90;;;;;;5051371;28;20075;-84
2023/01/22 09:34:56;;;;;;;25.25;20.20;;;2.60;99.90;;;;;;5051982;28;20018;-84
2023/01/22 09:37:21;;;;;;;26.45;17.80;;;2.40;99.90;;;;;;5051093;28;20029;-84
2023/01/22 09:39:51;;;;;;;21.15;17.98;;;2.60;99.90;;;;;;5051913;28;20032;-84
2023/01/22 09:42:21;;;;;;;16.70;10.60;;;2.30;99.90;;;;;;5051158;28;20036;-84
2023/01/22 09:44:53;;;;;;;14.15;10.18;;;3.00;99.90;;;;;;5043302;28;20017;-84
2023/01/22 09:47:29;;;;;;;12.82;8.90;;;3.40;99.90;;;;;;5051501;28;20107;-84
2023/01/22 09:50:06;;;;;;;12.20;9.65;;;4.40;99.90;;;;;;5051552;28;20025;-84
2023/01/22 09:52:37;;;;;;;13.18;9.80;;;4.40;99.90;;;;;;5051815;28;20409;-84
2023/01/22 09:55:08;;;;;;;14.40;10.23;;;4.70;99.90;;;;;;5051243;28;20032;-84
2023/01/22 09:57:34;;;;;;;12.57;9.45;;;4.30;99.90;;;;;;5051004;28;20029;-84
2023/01/22 10:00:00;;;;;;;14.57;10.40;;;3.80;99.90;;;;;;5051331;28;20021;-84
2023/01/22 10:02:36;;;;;;;16.30;11.85;;;3.50;99.90;;;;;;5051040;28;20127;-84
2023/01/22 10:05:21;;;;;;;14.43;10.82;;;3.90;99.90;;;;;;5051663;28;20107;-84
2023/01/22 10:07:52;;;;;;;17.73;12.55;;;3.10;99.90;;;;;;5051233;28;20033;-84
2023/01/22 10:10:21;;;;;;;18.00;12.40;;;3.30;99.90;;;;;;5053002;28;20021;-85
2023/01/22 10:13:00;;;;;;;17.20;12.80;;;3.20;99.90;;;;;;5054488;28;20025;-85
2023/01/22 10:15:26;;;;;;;13.85;9.27;;;2.80;99.90;;;;;;5054389;28;20470;-84
2023/01/22 10:17:55;;;;;;;15.77;11.38;;;2.60;99.90;;;;;;5047384;28;20033;-84
2023/01/22 10:20:23;;;;;;;22.08;13.70;;;3.10;99.90;;;;;;5054529;28;20036;-84
2023/01/22 10:22:52;;;;;;;61.47;28.55;;;3.00;99.90;;;;;;5054427;28;20501;-84
2023/01/22 10:25:17;;;;;;;20.52;16.20;;;3.40;99.90;;;;;;5054543;28;20116;-84
2023/01/22 10:27:45;;;;;;;19.58;15.00;;;3.30;99.90;;;;;;5054452;28;20104;-84
2023/01/22 10:30:13;;;;;;;13.13;10.30;;;3.00;99.90;;;;;;5054621;28;20035;-84
2023/01/22 10:32:39;;;;;;;16.10;11.48;;;3.50;99.90;;;;;;5054425;28;20052;-84
2023/01/22 10:35:19;;;;;;;18.40;14.43;;;3.50;99.90;;;;;;5054778;28;20021;-84
2023/01/22 10:37:50;;;;;;;17.17;12.90;;;3.00;99.90;;;;;;5054116;28;20416;-84
2023/01/22 10:40:39;;;;;;;16.75;11.98;;;3.00;99.90;;;;;;5053838;28;20033;-84
2023/01/22 10:43:14;;;;;;;16.45;12.15;;;3.20;99.90;;;;;;5054444;28;20037;-85
2023/01/22 10:45:51;;;;;;;20.38;16.90;;;3.00;99.90;;;;;;5054001;28;20489;-84
2023/01/22 10:48:17;;;;;;;13.93;10.13;;;3.20;99.90;;;;;;5054033;28;20021;-84
2023/01/22 10:50:44;;;;;;;18.92;16.02;;;3.50;99.90;;;;;;5054071;28;20028;-85
2023/01/22 10:53:50;;;;;;;15.38;10.98;;;2.80;99.90;;;;;;5054191;28;20021;-84
2023/01/22 10:56:32;;;;;;;51.03;32.78;;;2.80;99.90;;;;;;4972662;28;20081;-84
2023/01/22 10:59:03;;;;;;;29.42;17.55;;;2.90;99.90;;;;;;4956579;28;20069;-85
2023/01/22 11:01:35;;;;;;;30.08;21.50;;;3.00;99.90;;;;;;4973039;28;20038;-84
2023/01/22 11:04:28;;;;;;;24.77;15.10;;;2.60;99.90;;;;;;4972950;28;20527;-84
2023/01/22 11:07:23;;;;;;;32.03;21.60;;;2.70;99.90;;;;;;4967211;28;20043;-84
2023/01/22 11:10:06;;;;;;;21.02;13.55;;;2.50;99.90;;;;;;4967230;28;20416;-84
2023/01/22 11:12:38;;;;;;;37.80;25.58;;;3.10;99.90;;;;;;4991897;28;20038;-84
2023/01/22 11:15:33;;;;;;;32.95;22.30;;;3.10;99.90;;;;;;4992060;28;20022;-84
2023/01/22 11:18:00;;;;;;;15.80;11.25;;;2.80;99.90;;;;;;4992583;28;20075;-84
2023/01/22 11:20:32;;;;;;;14.98;9.60;;;3.10;99.90;;;;;;4991626;28;20027;-84
2023/01/22 11:23:09;;;;;;;19.75;14.57;;;3.20;99.90;;;;;;4992193;28;20038;-84
2023/01/22 11:26:02;;;;;;;22.00;16.67;;;3.20;99.90;;;;;;4992026;28;20102;-84
2023/01/22 11:28:40;;;;;;;17.55;12.52;;;2.80;99.90;;;;;;4989062;28;20106;-85
2023/01/22 11:31:17;;;;;;;19.42;13.18;;;2.90;99.90;;;;;;5002008;28;20037;-85
2023/01/22 11:34:21;;;;;;;19.70;15.05;;;2.90;99.90;;;;;;5033281;28;20042;-84
2023/01/22 11:36:55;;;;;;;13.00;9.43;;;3.10;99.90;;;;;;5033510;28;20037;-84
2023/01/22 11:39:32;;;;;;;15.60;11.50;;;3.10;99.90;;;;;;5033411;28;20025;-84
2023/01/22 11:42:17;;;;;;;14.43;10.63;;;3.20;99.90;;;;;;5033363;28;20036;-84
2023/01/22 11:45:02;;;;;;;17.63;13.43;;;3.00;99.90;;;;;;5033353;28;20029;-84
2023/01/22 11:47:34;;;;;;;12.45;9.48;;;2.70;99.90;;;;;;5032654;28;20068;-84
2023/01/22 11:50:18;;;;;;;13.02;9.93;;;2.90;99.90;;;;;;5033069;28;20036;-84
2023/01/22 11:53:06;;;;;;;31.45;21.67;;;3.30;99.90;;;;;;5032684;28;20032;-82
2023/01/22 11:55:34;;;;;;;31.77;22.90;;;3.20;99.90;;;;;;5051530;28;20497;-84
2023/01/22 11:58:03;;;;;;;15.50;11.32;;;3.80;99.90;;;;;;5052850;28;20068;-84
2023/01/22 12:00:37;;;;;;;13.95;11.40;;;3.70;99.90;;;;;;5053036;28;20047;-85
2023/01/22 12:03:43;;;;;;;25.30;18.63;;;3.90;99.90;;;;;;5052538;28;20493;-84
2023/01/22 12:06:45;;;;;;;18.85;14.05;;;3.80;99.90;;;;;;5052643;28;20090;-84
2023/01/22 12:09:13;;;;;;;18.25;14.20;;;3.60;99.90;;;;;;5052311;28;20453;-84
2023/01/22 12:11:57;;;;;;;15.32;10.07;;;3.60;99.90;;;;;;5052754;28;20033;-85
2023/01/22 12:14:35;;;;;;;16.88;13.60;;;2.90;99.90;;;;;;5052517;28;20035;-84
2023/01/22 12:17:18;;;;;;;16.08;11.70;;;3.10;99.90;;;;;;5052085;28;20310;-84
2023/01/22 12:19:58;;;;;;;17.38;13.55;;;3.10;99.90;;;;;;5052411;28;20064;-84
2023/01/22 12:22:42;;;;;;;14.45;10.55;;;3.70;99.90;;;;;;5052422;28;20620;-84
2023/01/22 12:25:45;;;;;;;14.68;10.80;;;3.90;99.90;;;;;;5052371;28;20056;-85
2023/01/22 12:28:16;;;;;;;14.40;9.63;;;3.80;99.90;;;;;;5052309;28;20032;-85
2023/01/22 12:30:45;;;;;;;13.00;9.65;;;4.00;99.90;;;;;;5052318;28;20024;-84
2023/01/22 12:33:18;;;;;;;13.88;10.23;;;3.80;99.90;;;;;;5051283;28;20140;-84
2023/01/22 12:35:46;;;;;;;12.13;9.00;;;3.70;99.90;;;;;;5052148;28;20032;-84
2023/01/22 12:38:24;;;;;;;14.55;11.00;;;3.50;99.90;;;;;;5051794;28;20032;-84
2023/01/22 12:41:18;;;;;;;12.85;9.48;;;3.90;99.90;;;;;;5052196;28;20025;-85
2023/01/22 12:43:55;;;;;;;13.60;10.18;;;3.80;99.90;;;;;;5051516;28;20041;-84
2023/01/22 12:46:48;;;;;;;15.05;10.77;;;3.20;99.90;;;;;;5051921;28;20490;-85
2023/01/22 12:49:19;;;;;;;13.77;11.27;;;3.40;99.90;;;;;;5052167;28;20029;-84
2023/01/22 12:51:50;;;;;;;15.48;12.48;;;3.60;99.90;;;;;;5051625;28;20428;-85
2023/01/22 12:54:26;;;;;;;15.70;12.48;;;3.90;99.90;;;;;;5052270;28;20029;-84